Tamworth, New South Wales

8:36 PM AEST on May 30, 2015 (GMT +1000)
East Tamworth | | Change Station
CLOSE
Current Station
Personal Weather Station
Location: Tamworth, NSW
Elevation: 1303 ft
Nearby Weather Stations

Elev 1303 ft 31.09 °S, 150.93 °E | Updated 4 minutes ago

Overcast
Overcast
58.2 °F
Feels Like 58.2 °F
N
0.0
Wind Variable Wind from NW

Today
High -- | Low -- °F
--% Chance of Precip.
Yesterday
High -- | Low -- °F
Precip. -- in
6:45 AM 5:02 PM
Waxing Gibbous, 89% visible
Pressure 30.15 in
Visibility 6.2 miles
Clouds Scattered Clouds 3100 ft
Overcast 5900 ft
Dew Point 56 °F
Humidity 91%
Rainfall 0.02 in
Snow Depth Not available.
UV 0 out of 12
Pollen Not available.
Air Quality Not available.
Flu Activity Not available.
METAR YSTW 301000Z AUTO 33003KT 9999 // SCT031 OVC059 14/12 Q1021

More Conditions Fewer Conditions

Pressure 30.15 in
Visibility 6.2 miles
Clouds Scattered Clouds 3100 ft
Overcast 5900 ft
Dew Point 56 °F
Humidity 91%
Rainfall 0.02 in
Snow Depth Not available.
UV 0 out of 12
Pollen Not available.
Air Quality Not available.
Flu Activity Not available.
METAR YSTW 301000Z AUTO 33003KT 9999 // SCT031 OVC059 14/12 Q1021

More Conditions Fewer Conditions

10-Day Weather Forecast

Almanac

Astronomy

May. 30, 2015 Rise Set
Actual Time
Civil Twilight
Nautical Twilight
Astronomical Twilight
Moon
Length of Visible Light
Length of Day
Tomorrow will be .
, % of the Moon is Illuminated

Today's Extremes

Country Highs Country Lows

Community

WunderPhotos

Upload Photos

1,825,478 photos uploaded!

WunderBlogs® & News

Nearby

Air Quality

  Air Quality AQ Index Pollutant
Not available.

Snow Depth

Station Depth Elevation

Earthquake Activity

City Distance Mag. Time & Date
Minimum magnitude displayed is 2.5.

Coastal Water Temperatures

Place Temperature

Stations

Nearby Weather Stations

Station Location Temp. Windchill Dew Point Humidity Wind Precip. Elev Updated Type